Disclaimer

Please do not use the information listed here in-flight or in-navigation, as they are not provided to us by the airports but are provided by volunteers, so they might be outdated.

Search


Regions


Airport information page

Radio informations:
ALMIROS TWR - 122.1 MHz
ALMIROS APP - 120.35 MHz

Airport informations:
Latitude: 39° 13' 10.63" N
Longitude: 022° 47' 39.62" E
Elevation: 83 feet - 25 meters
Operating hours: Remarks
Operating agency: Military
Timezone: UTC+2(+3DT) - Last Sunday in March to last Sunday in October
Fuel: JP-4, Wide cut turbine fuel MIL Spec T-5624

Jet A1, without icing nhibitor.

115/145 octane gasoline, leaded, MIL-L-5572F (PURPLE)

100/130 MIL Spec, low lead, aviation gasoline (BLUE)

Runway information:
08/26 - 9052 x 148 feet< - >2759 x 45 meters

Recent METARs:
LGBL 160550Z 10010KT 9999 SCT030 BKN080 10/08 Q1024
LGBL 160620Z 09010KT 9999 SCT030 BKN080 10/08 Q1024
LGBL 160650Z 08016KT 9999 SCT030 BKN080 12/08 Q1023

Airport on the map: